sensor_id;sensor_type;location;lat;lon;timestamp;pressure;altitude;pressure_sealevel;temperature;humidity
73598;BME280;61874;48.146;11.594;2022-07-29T00:00:52;95815.78;;;20.42;63.29
73598;BME280;61874;48.146;11.594;2022-07-29T00:03:18;95812.63;;;20.40;63.35
73598;BME280;61874;48.146;11.594;2022-07-29T00:05:43;95820.31;;;20.23;63.57
73598;BME280;61874;48.146;11.594;2022-07-29T00:08:09;95808.94;;;20.17;64.47
73598;BME280;61874;48.146;11.594;2022-07-29T00:10:35;95813.84;;;20.11;64.59
73598;BME280;61874;48.146;11.594;2022-07-29T00:13:00;95813.56;;;20.16;64.48
73598;BME280;61874;48.146;11.594;2022-07-29T00:15:27;95816.53;;;20.11;65.11
73598;BME280;61874;48.146;11.594;2022-07-29T00:17:52;95820.75;;;20.09;65.30
73598;BME280;61874;48.146;11.594;2022-07-29T00:20:18;95815.16;;;20.02;65.68
73598;BME280;61874;48.146;11.594;2022-07-29T00:22:43;95813.31;;;20.06;65.82
73598;BME280;61874;48.146;11.594;2022-07-29T00:25:09;95810.75;;;20.13;65.79
73598;BME280;61874;48.146;11.594;2022-07-29T00:27:35;95817.44;;;20.15;66.27
73598;BME280;61874;48.146;11.594;2022-07-29T00:30:02;95818.56;;;20.14;65.95
73598;BME280;61874;48.146;11.594;2022-07-29T00:32:28;95817.63;;;20.07;66.55
73598;BME280;61874;48.146;11.594;2022-07-29T00:34:53;95809.19;;;20.12;66.93
73598;BME280;61874;48.146;11.594;2022-07-29T00:37:37;95813.72;;;20.08;67.19
73598;BME280;61874;48.146;11.594;2022-07-29T00:40:03;95813.56;;;20.16;67.26
73598;BME280;61874;48.146;11.594;2022-07-29T00:42:29;95809.03;;;20.21;67.02
73598;BME280;61874;48.146;11.594;2022-07-29T00:44:54;95801.28;;;20.23;67.13
73598;BME280;61874;48.146;11.594;2022-07-29T00:47:19;95799.66;;;20.18;65.76
73598;BME280;61874;48.146;11.594;2022-07-29T00:49:45;95797.28;;;20.16;64.81
73598;BME280;61874;48.146;11.594;2022-07-29T00:52:11;95784.22;;;20.22;65.26
73598;BME280;61874;48.146;11.594;2022-07-29T00:54:38;95781.88;;;20.21;64.22
73598;BME280;61874;48.146;11.594;2022-07-29T00:57:06;95783.00;;;20.20;64.93
73598;BME280;61874;48.146;11.594;2022-07-29T00:59:32;95777.75;;;20.27;64.78
73598;BME280;61874;48.146;11.594;2022-07-29T01:01:57;95774.78;;;20.32;64.16
73598;BME280;61874;48.146;11.594;2022-07-29T01:04:22;95774.06;;;20.35;65.23
73598;BME280;61874;48.146;11.594;2022-07-29T01:06:48;95769.00;;;20.33;63.57
73598;BME280;61874;48.146;11.594;2022-07-29T01:09:15;95754.53;;;20.29;62.20
73598;BME280;61874;48.146;11.594;2022-07-29T01:11:43;95765.13;;;20.34;62.73
73598;BME280;61874;48.146;11.594;2022-07-29T01:14:09;95768.53;;;20.31;62.64
73598;BME280;61874;48.146;11.594;2022-07-29T01:16:42;95766.38;;;20.21;61.91
73598;BME280;61874;48.146;11.594;2022-07-29T01:19:23;95773.72;;;20.21;60.46
73598;BME280;61874;48.146;11.594;2022-07-29T01:22:02;95763.13;;;20.15;60.31
73598;BME280;61874;48.146;11.594;2022-07-29T01:30:13;95759.63;;;20.31;61.83
73598;BME280;61874;48.146;11.594;2022-07-29T01:32:40;95761.25;;;20.35;60.74
73598;BME280;61874;48.146;11.594;2022-07-29T01:35:23;95761.47;;;20.42;60.66
73598;BME280;61874;48.146;11.594;2022-07-29T01:40:44;95769.34;;;20.47;61.99
73598;BME280;61874;48.146;11.594;2022-07-29T01:43:27;95766.28;;;20.49;62.78
73598;BME280;61874;48.146;11.594;2022-07-29T01:45:56;95768.28;;;20.52;60.97
73598;BME280;61874;48.146;11.594;2022-07-29T01:48:27;95758.47;;;20.47;60.52
73598;BME280;61874;48.146;11.594;2022-07-29T01:53:53;95764.72;;;20.48;62.15
73598;BME280;61874;48.146;11.594;2022-07-29T01:56:21;95757.75;;;20.50;61.94
73598;BME280;61874;48.146;11.594;2022-07-29T01:58:49;95760.47;;;20.50;62.50
73598;BME280;61874;48.146;11.594;2022-07-29T02:01:17;95758.03;;;20.45;61.23
73598;BME280;61874;48.146;11.594;2022-07-29T02:03:45;95751.91;;;20.48;60.79
73598;BME280;61874;48.146;11.594;2022-07-29T02:06:12;95757.69;;;20.47;62.10
73598;BME280;61874;48.146;11.594;2022-07-29T02:08:40;95749.53;;;20.47;61.88
73598;BME280;61874;48.146;11.594;2022-07-29T02:11:08;95752.69;;;20.33;63.08
73598;BME280;61874;48.146;11.594;2022-07-29T02:13:35;95752.00;;;20.21;62.74
73598;BME280;61874;48.146;11.594;2022-07-29T02:16:05;95749.34;;;20.24;60.39
73598;BME280;61874;48.146;11.594;2022-07-29T02:18:31;95739.63;;;20.23;61.49
73598;BME280;61874;48.146;11.594;2022-07-29T02:20:59;95747.09;;;20.26;62.04
73598;BME280;61874;48.146;11.594;2022-07-29T02:23:26;95737.78;;;20.27;62.38
73598;BME280;61874;48.146;11.594;2022-07-29T02:25:53;95735.97;;;20.31;60.92
73598;BME280;61874;48.146;11.594;2022-07-29T02:28:22;95734.09;;;20.35;60.48
73598;BME280;61874;48.146;11.594;2022-07-29T02:30:50;95732.63;;;20.38;61.61
73598;BME280;61874;48.146;11.594;2022-07-29T02:33:18;95730.25;;;20.36;62.48
73598;BME280;61874;48.146;11.594;2022-07-29T02:35:46;95723.22;;;20.35;63.72
73598;BME280;61874;48.146;11.594;2022-07-29T02:38:14;95724.03;;;20.36;64.91
73598;BME280;61874;48.146;11.594;2022-07-29T02:41:01;95714.06;;;20.24;65.47
73598;BME280;61874;48.146;11.594;2022-07-29T02:43:30;95716.78;;;20.24;65.62
73598;BME280;61874;48.146;11.594;2022-07-29T02:45:58;95714.41;;;20.23;64.27
73598;BME280;61874;48.146;11.594;2022-07-29T02:48:27;95712.13;;;20.25;65.28
73598;BME280;61874;48.146;11.594;2022-07-29T02:51:04;95715.19;;;20.23;64.07
73598;BME280;61874;48.146;11.594;2022-07-29T02:53:33;95717.75;;;20.16;65.54
73598;BME280;61874;48.146;11.594;2022-07-29T02:56:08;95719.69;;;20.15;65.69
73598;BME280;61874;48.146;11.594;2022-07-29T02:58:40;95717.16;;;20.07;66.36
73598;BME280;61874;48.146;11.594;2022-07-29T03:01:20;95720.75;;;19.95;65.27
73598;BME280;61874;48.146;11.594;2022-07-29T03:03:48;95715.75;;;19.97;65.67
73598;BME280;61874;48.146;11.594;2022-07-29T03:06:15;95720.25;;;19.90;66.21
73598;BME280;61874;48.146;11.594;2022-07-29T03:08:42;95720.41;;;19.81;65.87
73598;BME280;61874;48.146;11.594;2022-07-29T03:11:09;95717.44;;;19.70;65.57
73598;BME280;61874;48.146;11.594;2022-07-29T03:13:36;95721.09;;;19.62;66.04
73598;BME280;61874;48.146;11.594;2022-07-29T03:16:02;95724.16;;;19.61;66.34
73598;BME280;61874;48.146;11.594;2022-07-29T03:18:28;95715.25;;;19.60;65.58
73598;BME280;61874;48.146;11.594;2022-07-29T03:20:53;95713.56;;;19.56;65.82
73598;BME280;61874;48.146;11.594;2022-07-29T03:23:20;95713.63;;;19.43;66.18
73598;BME280;61874;48.146;11.594;2022-07-29T03:25:48;95715.09;;;19.41;66.13
73598;BME280;61874;48.146;11.594;2022-07-29T03:28:13;95714.91;;;19.34;67.19
73598;BME280;61874;48.146;11.594;2022-07-29T03:30:38;95712.91;;;19.31;67.86
73598;BME280;61874;48.146;11.594;2022-07-29T03:33:04;95717.19;;;19.32;67.30
73598;BME280;61874;48.146;11.594;2022-07-29T03:35:29;95707.72;;;19.26;67.85
73598;BME280;61874;48.146;11.594;2022-07-29T03:37:57;95711.16;;;19.23;68.78
73598;BME280;61874;48.146;11.594;2022-07-29T03:40:36;95706.31;;;19.16;69.04
73598;BME280;61874;48.146;11.594;2022-07-29T03:43:03;95712.50;;;19.17;69.25
73598;BME280;61874;48.146;11.594;2022-07-29T03:45:30;95722.22;;;19.18;69.22
73598;BME280;61874;48.146;11.594;2022-07-29T03:48:00;95718.72;;;19.17;69.33
73598;BME280;61874;48.146;11.594;2022-07-29T03:50:27;95715.91;;;19.13;69.67
73598;BME280;61874;48.146;11.594;2022-07-29T03:52:54;95720.44;;;19.09;69.81
73598;BME280;61874;48.146;11.594;2022-07-29T03:55:19;95722.34;;;19.09;69.78
73598;BME280;61874;48.146;11.594;2022-07-29T03:57:46;95728.84;;;19.04;70.43
73598;BME280;61874;48.146;11.594;2022-07-29T04:00:13;95724.09;;;19.01;70.91
73598;BME280;61874;48.146;11.594;2022-07-29T04:02:40;95727.41;;;18.95;70.99
73598;BME280;61874;48.146;11.594;2022-07-29T04:05:13;95730.13;;;18.95;70.83
73598;BME280;61874;48.146;11.594;2022-07-29T04:07:40;95724.63;;;18.79;71.70
73598;BME280;61874;48.146;11.594;2022-07-29T04:10:06;95726.22;;;18.80;71.89
73598;BME280;61874;48.146;11.594;2022-07-29T04:12:32;95731.19;;;18.78;72.34
73598;BME280;61874;48.146;11.594;2022-07-29T04:14:57;95729.50;;;18.73;72.09
73598;BME280;61874;48.146;11.594;2022-07-29T04:17:23;95728.94;;;18.68;72.61
73598;BME280;61874;48.146;11.594;2022-07-29T04:19:48;95730.44;;;18.65;73.15
73598;BME280;61874;48.146;11.594;2022-07-29T04:22:13;95729.66;;;18.65;73.25
73598;BME280;61874;48.146;11.594;2022-07-29T04:24:39;95720.63;;;18.61;73.54
73598;BME280;61874;48.146;11.594;2022-07-29T04:27:04;95732.91;;;18.46;74.13
73598;BME280;61874;48.146;11.594;2022-07-29T04:29:29;95728.50;;;18.41;74.36
73598;BME280;61874;48.146;11.594;2022-07-29T04:31:55;95732.91;;;18.46;74.51
73598;BME280;61874;48.146;11.594;2022-07-29T04:34:20;95743.88;;;18.50;74.37
73598;BME280;61874;48.146;11.594;2022-07-29T04:36:46;95742.16;;;18.57;74.43
73598;BME280;61874;48.146;11.594;2022-07-29T04:39:11;95747.25;;;18.59;74.96
73598;BME280;61874;48.146;11.594;2022-07-29T04:41:36;95745.97;;;18.68;74.66
73598;BME280;61874;48.146;11.594;2022-07-29T04:44:02;95755.91;;;18.76;74.41
73598;BME280;61874;48.146;11.594;2022-07-29T04:46:30;95753.50;;;18.87;74.12
73598;BME280;61874;48.146;11.594;2022-07-29T04:48:55;95757.56;;;18.93;73.90
73598;BME280;61874;48.146;11.594;2022-07-29T04:51:21;95753.34;;;19.08;74.02
73598;BME280;61874;48.146;11.594;2022-07-29T04:53:46;95755.09;;;19.16;73.64
73598;BME280;61874;48.146;11.594;2022-07-29T04:56:11;95757.91;;;19.20;73.63
73598;BME280;61874;48.146;11.594;2022-07-29T04:58:37;95753.56;;;19.31;73.24
73598;BME280;61874;48.146;11.594;2022-07-29T05:01:03;95754.97;;;19.40;73.06
73598;BME280;61874;48.146;11.594;2022-07-29T05:03:28;95761.88;;;19.50;72.94
73598;BME280;61874;48.146;11.594;2022-07-29T05:05:54;95767.81;;;19.56;73.31
73598;BME280;61874;48.146;11.594;2022-07-29T05:08:19;95765.31;;;19.63;73.00
73598;BME280;61874;48.146;11.594;2022-07-29T05:10:45;95773.88;;;19.65;72.88
73598;BME280;61874;48.146;11.594;2022-07-29T05:13:10;95771.25;;;19.68;72.63
73598;BME280;61874;48.146;11.594;2022-07-29T05:15:36;95766.59;;;19.69;73.17
73598;BME280;61874;48.146;11.594;2022-07-29T05:18:03;95768.97;;;19.70;73.09
73598;BME280;61874;48.146;11.594;2022-07-29T05:20:29;95771.09;;;19.77;72.94
73598;BME280;61874;48.146;11.594;2022-07-29T05:22:56;95766.47;;;19.77;73.15
73598;BME280;61874;48.146;11.594;2022-07-29T05:25:23;95764.59;;;19.81;72.07
73598;BME280;61874;48.146;11.594;2022-07-29T05:27:48;95764.69;;;19.85;71.21
73598;BME280;61874;48.146;11.594;2022-07-29T05:30:14;95767.59;;;19.92;71.53
73598;BME280;61874;48.146;11.594;2022-07-29T05:32:39;95775.91;;;19.99;71.36
73598;BME280;61874;48.146;11.594;2022-07-29T05:35:05;95773.44;;;20.10;70.80
73598;BME280;61874;48.146;11.594;2022-07-29T05:37:31;95776.50;;;20.24;70.28
73598;BME280;61874;48.146;11.594;2022-07-29T05:39:56;95782.22;;;20.35;69.80
73598;BME280;61874;48.146;11.594;2022-07-29T05:42:21;95785.81;;;20.39;68.20
73598;BME280;61874;48.146;11.594;2022-07-29T05:44:47;95796.22;;;20.52;67.41
73598;BME280;61874;48.146;11.594;2022-07-29T05:47:12;95791.41;;;20.62;67.13
73598;BME280;61874;48.146;11.594;2022-07-29T05:49:38;95786.88;;;20.85;65.09
73598;BME280;61874;48.146;11.594;2022-07-29T05:52:04;95787.44;;;21.29;64.15
73598;BME280;61874;48.146;11.594;2022-07-29T05:54:30;95791.44;;;21.77;61.42
73598;BME280;61874;48.146;11.594;2022-07-29T05:56:55;95787.56;;;22.43;60.50
73598;BME280;61874;48.146;11.594;2022-07-29T05:59:21;95788.13;;;23.09;59.79
73598;BME280;61874;48.146;11.594;2022-07-29T06:01:46;95775.16;;;23.65;58.81
73598;BME280;61874;48.146;11.594;2022-07-29T06:04:11;95782.44;;;24.32;55.40
73598;BME280;61874;48.146;11.594;2022-07-29T06:06:37;95785.06;;;24.72;54.14
73598;BME280;61874;48.146;11.594;2022-07-29T06:09:03;95779.28;;;24.85;51.88
73598;BME280;61874;48.146;11.594;2022-07-29T06:11:28;95780.97;;;25.00;52.09
73598;BME280;61874;48.146;11.594;2022-07-29T06:13:53;95778.38;;;25.25;49.21
73598;BME280;61874;48.146;11.594;2022-07-29T06:16:19;95777.66;;;25.46;47.27
73598;BME280;61874;48.146;11.594;2022-07-29T06:18:44;95781.97;;;25.39;47.31
73598;BME280;61874;48.146;11.594;2022-07-29T06:21:10;95781.13;;;25.25;49.34
73598;BME280;61874;48.146;11.594;2022-07-29T06:23:37;95782.16;;;25.02;50.37
73598;BME280;61874;48.146;11.594;2022-07-29T06:26:03;95781.25;;;24.81;51.03
73598;BME280;61874;48.146;11.594;2022-07-29T06:28:28;95783.63;;;24.34;49.79
73598;BME280;61874;48.146;11.594;2022-07-29T06:30:54;95783.78;;;24.08;51.53
73598;BME280;61874;48.146;11.594;2022-07-29T06:33:19;95778.41;;;23.78;53.45
73598;BME280;61874;48.146;11.594;2022-07-29T06:35:44;95777.84;;;23.62;50.59
73598;BME280;61874;48.146;11.594;2022-07-29T06:38:12;95786.34;;;23.53;52.00
73598;BME280;61874;48.146;11.594;2022-07-29T06:40:41;95780.53;;;23.58;52.01
73598;BME280;61874;48.146;11.594;2022-07-29T06:43:29;95776.88;;;23.81;50.79
73598;BME280;61874;48.146;11.594;2022-07-29T06:45:58;95788.59;;;23.81;49.63
73598;BME280;61874;48.146;11.594;2022-07-29T06:48:23;95775.34;;;23.50;50.87
73598;BME280;61874;48.146;11.594;2022-07-29T06:50:49;95779.44;;;23.29;50.76
73598;BME280;61874;48.146;11.594;2022-07-29T06:53:14;95787.56;;;23.26;51.27
73598;BME280;61874;48.146;11.594;2022-07-29T06:55:40;95788.97;;;23.16;51.38
73598;BME280;61874;48.146;11.594;2022-07-29T06:58:05;95789.91;;;23.27;52.21
73598;BME280;61874;48.146;11.594;2022-07-29T07:00:32;95800.25;;;23.45;51.08
73598;BME280;61874;48.146;11.594;2022-07-29T07:02:57;95799.66;;;23.58;51.99
73598;BME280;61874;48.146;11.594;2022-07-29T07:05:22;95789.22;;;23.67;50.00
73598;BME280;61874;48.146;11.594;2022-07-29T07:07:48;95805.25;;;23.69;50.70
73598;BME280;61874;48.146;11.594;2022-07-29T07:10:13;95806.72;;;23.63;51.20
73598;BME280;61874;48.146;11.594;2022-07-29T07:12:40;95800.53;;;23.66;49.96
73598;BME280;61874;48.146;11.594;2022-07-29T07:15:06;95807.44;;;23.56;50.37
73598;BME280;61874;48.146;11.594;2022-07-29T07:17:31;95805.56;;;23.64;50.93
73598;BME280;61874;48.146;11.594;2022-07-29T07:20:05;95807.94;;;24.06;49.46
73598;BME280;61874;48.146;11.594;2022-07-29T07:22:31;95805.91;;;24.36;48.21
73598;BME280;61874;48.146;11.594;2022-07-29T07:24:57;95800.75;;;24.79;47.28
73598;BME280;61874;48.146;11.594;2022-07-29T07:27:22;95790.47;;;25.20;46.44
73598;BME280;61874;48.146;11.594;2022-07-29T07:29:47;95798.38;;;25.39;45.86
73598;BME280;61874;48.146;11.594;2022-07-29T07:32:13;95790.75;;;25.91;46.36
73598;BME280;61874;48.146;11.594;2022-07-29T07:34:41;95795.44;;;26.01;45.10
73598;BME280;61874;48.146;11.594;2022-07-29T07:37:07;95790.03;;;26.44;44.96
73598;BME280;61874;48.146;11.594;2022-07-29T07:39:32;95788.03;;;26.76;44.13
73598;BME280;61874;48.146;11.594;2022-07-29T07:41:58;95793.94;;;26.75;41.05
73598;BME280;61874;48.146;11.594;2022-07-29T07:44:23;95786.13;;;26.52;40.83
73598;BME280;61874;48.146;11.594;2022-07-29T07:46:48;95793.13;;;26.71;41.81
73598;BME280;61874;48.146;11.594;2022-07-29T07:49:14;95785.28;;;26.98;40.44
73598;BME280;61874;48.146;11.594;2022-07-29T07:51:39;95794.25;;;27.16;40.57
73598;BME280;61874;48.146;11.594;2022-07-29T07:54:05;95788.22;;;27.53;41.12
73598;BME280;61874;48.146;11.594;2022-07-29T07:56:30;95779.53;;;27.76;41.27
73598;BME280;61874;48.146;11.594;2022-07-29T07:58:56;95788.69;;;28.14;39.79
73598;BME280;61874;48.146;11.594;2022-07-29T08:01:21;95778.47;;;28.18;39.48
73598;BME280;61874;48.146;11.594;2022-07-29T08:03:49;95783.59;;;28.19;39.45
73598;BME280;61874;48.146;11.594;2022-07-29T08:06:15;95785.88;;;28.28;38.55
73598;BME280;61874;48.146;11.594;2022-07-29T08:08:40;95793.03;;;28.08;39.98
73598;BME280;61874;48.146;11.594;2022-07-29T08:11:06;95793.41;;;28.20;37.91
73598;BME280;61874;48.146;11.594;2022-07-29T08:13:31;95790.34;;;28.04;39.62
73598;BME280;61874;48.146;11.594;2022-07-29T08:15:58;95797.72;;;28.14;39.65
73598;BME280;61874;48.146;11.594;2022-07-29T08:18:29;95793.59;;;28.47;38.75
73598;BME280;61874;48.146;11.594;2022-07-29T08:20:54;95792.75;;;28.50;37.89
73598;BME280;61874;48.146;11.594;2022-07-29T08:23:20;95797.44;;;28.57;38.96
73598;BME280;61874;48.146;11.594;2022-07-29T08:25:46;95792.31;;;28.59;39.36
73598;BME280;61874;48.146;11.594;2022-07-29T08:28:12;95792.50;;;28.86;39.09
73598;BME280;61874;48.146;11.594;2022-07-29T08:30:37;95786.34;;;28.64;39.31
73598;BME280;61874;48.146;11.594;2022-07-29T08:33:03;95791.56;;;28.51;39.24
73598;BME280;61874;48.146;11.594;2022-07-29T08:35:29;95793.19;;;27.86;37.79
73598;BME280;61874;48.146;11.594;2022-07-29T08:37:54;95781.41;;;27.90;37.64
73598;BME280;61874;48.146;11.594;2022-07-29T08:40:22;95796.13;;;28.24;37.74
73598;BME280;61874;48.146;11.594;2022-07-29T08:42:49;95790.31;;;28.63;38.89
73598;BME280;61874;48.146;11.594;2022-07-29T08:45:15;95794.25;;;28.62;39.13
73598;BME280;61874;48.146;11.594;2022-07-29T08:47:41;95799.22;;;28.33;39.28
73598;BME280;61874;48.146;11.594;2022-07-29T08:50:08;95803.22;;;28.18;40.08
73598;BME280;61874;48.146;11.594;2022-07-29T08:52:39;95799.69;;;28.21;40.30
73598;BME280;61874;48.146;11.594;2022-07-29T08:55:06;95788.63;;;28.28;39.03
73598;BME280;61874;48.146;11.594;2022-07-29T08:57:33;95792.50;;;27.68;39.96
73598;BME280;61874;48.146;11.594;2022-07-29T09:00:00;95799.81;;;26.80;43.45
73598;BME280;61874;48.146;11.594;2022-07-29T09:02:27;95800.59;;;26.70;42.95
73598;BME280;61874;48.146;11.594;2022-07-29T09:04:54;95804.91;;;26.71;44.30
73598;BME280;61874;48.146;11.594;2022-07-29T09:07:19;95807.66;;;26.46;45.73
73598;BME280;61874;48.146;11.594;2022-07-29T09:09:45;95805.69;;;26.54;45.78
73598;BME280;61874;48.146;11.594;2022-07-29T09:12:11;95814.72;;;26.51;44.57
73598;BME280;61874;48.146;11.594;2022-07-29T09:14:37;95807.25;;;26.44;43.03
73598;BME280;61874;48.146;11.594;2022-07-29T09:17:03;95812.72;;;26.69;43.51
73598;BME280;61874;48.146;11.594;2022-07-29T09:19:30;95806.47;;;26.94;44.28
73598;BME280;61874;48.146;11.594;2022-07-29T09:21:58;95806.81;;;27.17;43.19
73598;BME280;61874;48.146;11.594;2022-07-29T09:26:59;95799.31;;;27.25;43.30
73598;BME280;61874;48.146;11.594;2022-07-29T09:29:25;95794.84;;;27.77;42.07
73598;BME280;61874;48.146;11.594;2022-07-29T09:31:53;95800.91;;;28.09;42.27
73598;BME280;61874;48.146;11.594;2022-07-29T09:34:23;95786.81;;;28.04;41.19
73598;BME280;61874;48.146;11.594;2022-07-29T09:36:50;95792.03;;;27.84;41.59
73598;BME280;61874;48.146;11.594;2022-07-29T09:39:33;95792.56;;;27.50;41.88
73598;BME280;61874;48.146;11.594;2022-07-29T09:42:02;95797.06;;;26.70;45.06
73598;BME280;61874;48.146;11.594;2022-07-29T09:44:45;95805.66;;;26.82;44.70
73598;BME280;61874;48.146;11.594;2022-07-29T09:47:13;95798.66;;;26.32;44.90
73598;BME280;61874;48.146;11.594;2022-07-29T09:52:16;95799.78;;;26.06;46.28
73598;BME280;61874;48.146;11.594;2022-07-29T09:54:42;95791.13;;;25.83;48.20
73598;BME280;61874;48.146;11.594;2022-07-29T09:57:09;95799.31;;;25.75;48.49
73598;BME280;61874;48.146;11.594;2022-07-29T09:59:38;95802.00;;;25.61;50.56
73598;BME280;61874;48.146;11.594;2022-07-29T10:02:14;95794.88;;;25.39;49.62
73598;BME280;61874;48.146;11.594;2022-07-29T10:04:41;95793.94;;;25.14;48.94
73598;BME280;61874;48.146;11.594;2022-07-29T10:07:07;95806.13;;;25.27;49.41
73598;BME280;61874;48.146;11.594;2022-07-29T10:09:33;95783.16;;;25.49;48.86
73598;BME280;61874;48.146;11.594;2022-07-29T10:12:17;95805.84;;;25.57;49.67
73598;BME280;61874;48.146;11.594;2022-07-29T10:14:43;95788.72;;;25.67;50.47
73598;BME280;61874;48.146;11.594;2022-07-29T10:17:10;95791.06;;;25.72;49.77
73598;BME280;61874;48.146;11.594;2022-07-29T10:19:37;95793.84;;;25.79;50.04
73598;BME280;61874;48.146;11.594;2022-07-29T10:22:05;95798.91;;;25.73;49.00
73598;BME280;61874;48.146;11.594;2022-07-29T10:24:32;95792.16;;;25.57;49.64
73598;BME280;61874;48.146;11.594;2022-07-29T10:27:07;95787.09;;;25.59;47.13
73598;BME280;61874;48.146;11.594;2022-07-29T10:29:33;95794.22;;;25.74;50.36
73598;BME280;61874;48.146;11.594;2022-07-29T10:32:27;95792.25;;;25.64;47.78
73598;BME280;61874;48.146;11.594;2022-07-29T10:41:23;95796.06;;;25.56;50.66
73598;BME280;61874;48.146;11.594;2022-07-29T10:46:38;95798.75;;;25.41;50.78
73598;BME280;61874;48.146;11.594;2022-07-29T10:54:46;95787.63;;;26.14;44.45
73598;BME280;61874;48.146;11.594;2022-07-29T10:57:28;95776.69;;;26.60;47.14
73598;BME280;61874;48.146;11.594;2022-07-29T11:07:28;95773.50;;;27.01;45.43
73598;BME280;61874;48.146;11.594;2022-07-29T11:15:02;95770.63;;;27.43;42.94
73598;BME280;61874;48.146;11.594;2022-07-29T11:20:32;95778.47;;;27.45;42.59
73598;BME280;61874;48.146;11.594;2022-07-29T11:22:58;95776.84;;;27.58;43.93
73598;BME280;61874;48.146;11.594;2022-07-29T11:25:24;95773.31;;;27.61;43.57
73598;BME280;61874;48.146;11.594;2022-07-29T11:27:51;95765.78;;;27.72;40.98
73598;BME280;61874;48.146;11.594;2022-07-29T11:30:18;95765.41;;;27.67;40.21
73598;BME280;61874;48.146;11.594;2022-07-29T11:32:44;95764.91;;;27.90;41.68
73598;BME280;61874;48.146;11.594;2022-07-29T11:37:40;95763.50;;;27.60;41.70
73598;BME280;61874;48.146;11.594;2022-07-29T11:47:27;95760.00;;;27.49;41.51
73598;BME280;61874;48.146;11.594;2022-07-29T11:49:54;95756.09;;;27.39;42.57
73598;BME280;61874;48.146;11.594;2022-07-29T11:52:21;95751.00;;;27.41;43.19
73598;BME280;61874;48.146;11.594;2022-07-29T11:54:47;95742.50;;;27.14;44.64
73598;BME280;61874;48.146;11.594;2022-07-29T11:57:16;95743.72;;;26.99;43.85
73598;BME280;61874;48.146;11.594;2022-07-29T11:59:43;95750.78;;;27.00;43.62
73598;BME280;61874;48.146;11.594;2022-07-29T12:02:10;95744.50;;;26.86;42.72
73598;BME280;61874;48.146;11.594;2022-07-29T12:04:52;95739.47;;;26.66;41.33
73598;BME280;61874;48.146;11.594;2022-07-29T12:07:18;95746.13;;;26.58;42.53
73598;BME280;61874;48.146;11.594;2022-07-29T12:09:51;95743.41;;;26.33;41.95
73598;BME280;61874;48.146;11.594;2022-07-29T12:12:18;95744.19;;;26.44;42.93
73598;BME280;61874;48.146;11.594;2022-07-29T12:14:44;95740.28;;;26.45;43.61
73598;BME280;61874;48.146;11.594;2022-07-29T12:17:30;95726.94;;;26.55;42.56
73598;BME280;61874;48.146;11.594;2022-07-29T12:19:57;95732.41;;;26.58;42.80
73598;BME280;61874;48.146;11.594;2022-07-29T12:22:30;95739.88;;;26.54;45.96
73598;BME280;61874;48.146;11.594;2022-07-29T12:25:01;95733.63;;;26.46;45.54
73598;BME280;61874;48.146;11.594;2022-07-29T12:27:27;95731.63;;;26.58;44.65
73598;BME280;61874;48.146;11.594;2022-07-29T12:30:01;95727.31;;;26.60;46.25
73598;BME280;61874;48.146;11.594;2022-07-29T12:32:40;95730.47;;;26.52;45.50
73598;BME280;61874;48.146;11.594;2022-07-29T12:35:09;95736.38;;;26.36;45.83
73598;BME280;61874;48.146;11.594;2022-07-29T12:37:37;95727.38;;;26.35;46.60
73598;BME280;61874;48.146;11.594;2022-07-29T12:40:05;95737.16;;;26.33;48.28
73598;BME280;61874;48.146;11.594;2022-07-29T12:42:31;95729.72;;;26.30;46.60
73598;BME280;61874;48.146;11.594;2022-07-29T12:44:57;95723.84;;;26.38;45.76
73598;BME280;61874;48.146;11.594;2022-07-29T12:47:23;95720.66;;;26.54;45.43
73598;BME280;61874;48.146;11.594;2022-07-29T12:49:49;95718.69;;;26.69;45.04
73598;BME280;61874;48.146;11.594;2022-07-29T12:52:32;95720.28;;;26.66;45.51
73598;BME280;61874;48.146;11.594;2022-07-29T12:54:58;95721.44;;;26.58;44.31
73598;BME280;61874;48.146;11.594;2022-07-29T12:57:24;95721.47;;;26.51;45.17
73598;BME280;61874;48.146;11.594;2022-07-29T13:02:24;95726.16;;;26.01;45.38
73598;BME280;61874;48.146;11.594;2022-07-29T13:04:57;95724.19;;;25.91;43.78
73598;BME280;61874;48.146;11.594;2022-07-29T13:07:28;95729.28;;;25.78;48.45
73598;BME280;61874;48.146;11.594;2022-07-29T13:12:34;95741.00;;;25.75;48.32
73598;BME280;61874;48.146;11.594;2022-07-29T13:15:00;95736.72;;;25.77;48.09
73598;BME280;61874;48.146;11.594;2022-07-29T13:17:26;95741.00;;;25.68;45.00
73598;BME280;61874;48.146;11.594;2022-07-29T13:20:06;95733.50;;;25.58;45.33
73598;BME280;61874;48.146;11.594;2022-07-29T13:22:33;95733.09;;;25.56;46.56
73598;BME280;61874;48.146;11.594;2022-07-29T13:25:00;95726.41;;;25.42;47.34
73598;BME280;61874;48.146;11.594;2022-07-29T13:27:33;95731.53;;;25.48;47.32
73598;BME280;61874;48.146;11.594;2022-07-29T13:29:59;95730.34;;;25.49;46.23
73598;BME280;61874;48.146;11.594;2022-07-29T13:32:27;95731.50;;;25.44;49.48
73598;BME280;61874;48.146;11.594;2022-07-29T13:34:52;95737.38;;;25.39;51.22
73598;BME280;61874;48.146;11.594;2022-07-29T13:37:19;95736.13;;;25.22;51.09
73598;BME280;61874;48.146;11.594;2022-07-29T13:39:45;95735.69;;;25.13;48.80
73598;BME280;61874;48.146;11.594;2022-07-29T13:42:10;95733.72;;;25.06;50.32
73598;BME280;61874;48.146;11.594;2022-07-29T13:44:39;95741.13;;;25.02;49.74
73598;BME280;61874;48.146;11.594;2022-07-29T13:47:05;95733.28;;;24.94;50.21
73598;BME280;61874;48.146;11.594;2022-07-29T13:49:31;95729.31;;;24.91;50.50
73598;BME280;61874;48.146;11.594;2022-07-29T13:51:56;95722.63;;;24.82;52.04
73598;BME280;61874;48.146;11.594;2022-07-29T13:54:22;95715.63;;;24.84;51.36